createdAt,value
2022-11-11T00:00:16.853Z,102450.00
2022-11-11T00:03:33.462Z,102470.38
2022-11-11T00:06:48.680Z,102472.50
2022-11-11T00:10:05.261Z,102489.16
2022-11-11T00:13:20.978Z,102483.13
2022-11-11T00:16:54.940Z,102476.22
2022-11-11T00:20:32.297Z,102485.38
2022-11-11T00:24:09.150Z,102475.06
2022-11-11T00:27:24.848Z,102465.19
2022-11-11T00:30:40.815Z,102491.03
2022-11-11T00:33:56.897Z,102505.03
2022-11-11T00:37:12.908Z,102509.75
2022-11-11T00:40:28.824Z,102520.50
2022-11-11T00:43:45.608Z,102517.84
2022-11-11T00:47:21.213Z,102516.38
2022-11-11T00:50:59.007Z,102526.56
2022-11-11T00:54:14.977Z,102517.28
2022-11-11T00:57:30.768Z,102512.56
2022-11-11T01:00:45.948Z,102526.78
2022-11-11T01:04:01.769Z,102506.84
2022-11-11T01:07:16.831Z,102499.00
2022-11-11T01:10:38.799Z,102507.50
2022-11-11T01:13:54.857Z,102507.75
2022-11-11T01:17:11.067Z,102519.13
2022-11-11T01:20:26.924Z,102530.25
2022-11-11T01:23:42.995Z,102524.09
2022-11-11T01:26:59.209Z,102516.56
2022-11-11T01:30:14.875Z,102525.88
2022-11-11T01:33:31.018Z,102525.81
2022-11-11T01:36:46.593Z,102514.53
2022-11-11T01:40:03.620Z,102504.00
2022-11-11T01:43:22.547Z,102500.19
2022-11-11T01:46:49.511Z,102475.63
2022-11-11T01:50:05.360Z,102481.53
2022-11-11T01:53:21.391Z,102482.72
2022-11-11T01:56:36.837Z,102462.44
2022-11-11T02:00:00.927Z,102468.47
2022-11-11T02:03:16.913Z,102470.84
2022-11-11T02:06:33.301Z,102490.09
2022-11-11T02:09:49.043Z,102474.00
2022-11-11T02:13:25.347Z,102484.53
2022-11-11T02:16:41.754Z,102476.63
2022-11-11T02:19:59.070Z,102456.63
2022-11-11T02:23:41.187Z,102454.56
2022-11-11T02:26:58.525Z,102451.94
2022-11-11T02:30:18.105Z,102429.59
2022-11-11T02:33:34.005Z,102442.47
2022-11-11T02:36:49.219Z,102435.75
2022-11-11T02:40:07.660Z,102452.88
2022-11-11T02:43:23.193Z,102464.16
2022-11-11T02:46:39.125Z,102436.97
2022-11-11T02:49:55.060Z,102448.63
2022-11-11T02:53:11.217Z,102449.28
2022-11-11T02:56:45.575Z,102456.16
2022-11-11T03:00:02.594Z,102446.13
2022-11-11T03:03:19.436Z,102448.94
2022-11-11T03:06:34.669Z,102453.03
2022-11-11T03:09:49.845Z,102460.75
2022-11-11T03:13:05.948Z,102462.53
2022-11-11T03:16:40.738Z,102479.84
2022-11-11T03:20:15.808Z,102479.59
2022-11-11T03:23:31.867Z,102486.41
2022-11-11T03:26:48.287Z,102474.97
2022-11-11T03:30:04.069Z,102488.25
2022-11-11T03:33:19.780Z,102492.13
2022-11-11T03:36:55.657Z,102497.97
2022-11-11T03:40:11.272Z,102491.28
2022-11-11T03:43:28.574Z,102500.16
2022-11-11T03:46:43.765Z,102506.91
2022-11-11T03:49:59.994Z,102500.78
2022-11-11T03:53:17.841Z,102508.31
2022-11-11T03:56:33.006Z,102518.41
2022-11-11T03:59:49.071Z,102530.81
2022-11-11T04:03:33.991Z,102538.03
2022-11-11T04:07:08.531Z,102535.22
2022-11-11T04:10:23.906Z,102541.50
2022-11-11T04:13:59.345Z,102547.97
2022-11-11T04:17:14.911Z,102556.25
2022-11-11T04:20:49.420Z,102560.66
2022-11-11T04:24:25.157Z,102571.19
2022-11-11T04:27:40.846Z,102569.03
2022-11-11T04:30:56.636Z,102566.75
2022-11-11T04:34:12.229Z,102555.66
2022-11-11T04:37:30.654Z,102552.09
2022-11-11T04:41:04.077Z,102568.81
2022-11-11T04:44:37.687Z,102557.63
2022-11-11T04:48:03.252Z,102539.09
2022-11-11T04:51:19.051Z,102531.38
2022-11-11T04:54:55.087Z,102538.41
2022-11-11T04:58:11.241Z,102545.72
2022-11-11T05:01:45.221Z,102542.91
2022-11-11T05:05:01.209Z,102548.56
2022-11-11T05:08:49.170Z,102549.94
2022-11-11T05:12:05.278Z,102563.19
2022-11-11T05:15:39.191Z,102566.56
2022-11-11T05:19:13.683Z,102563.63
2022-11-11T05:22:43.446Z,102572.81
2022-11-11T05:25:58.768Z,102554.22
2022-11-11T05:29:14.025Z,102543.53
2022-11-11T05:32:30.325Z,102542.38
2022-11-11T05:35:45.765Z,102557.97
2022-11-11T05:39:02.248Z,102554.19
2022-11-11T05:42:17.898Z,102551.38
2022-11-11T05:45:33.096Z,102560.06
2022-11-11T05:49:07.594Z,102560.38
2022-11-11T05:52:23.018Z,102554.59
2022-11-11T05:55:39.207Z,102560.91
2022-11-11T05:58:55.176Z,102553.88
2022-11-11T06:02:11.381Z,102561.97
2022-11-11T06:05:27.301Z,102558.72
2022-11-11T06:08:43.206Z,102550.25
2022-11-11T06:11:59.068Z,102571.69
2022-11-11T06:15:14.988Z,102560.38
2022-11-11T06:18:31.446Z,102565.50
2022-11-11T06:22:00.935Z,102571.75
2022-11-11T06:25:35.388Z,102592.59
2022-11-11T06:28:52.802Z,102602.00
2022-11-11T06:32:08.053Z,102600.44
2022-11-11T06:35:23.152Z,102599.16
2022-11-11T06:38:39.464Z,102607.28
2022-11-11T06:41:56.161Z,102603.06
2022-11-11T06:45:12.242Z,102604.84
2022-11-11T06:48:28.550Z,102595.19
2022-11-11T06:51:44.040Z,102591.22
2022-11-11T06:55:00.098Z,102592.25
2022-11-11T06:58:17.750Z,102604.16
2022-11-11T07:01:34.465Z,102600.22
2022-11-11T07:04:50.404Z,102592.81
2022-11-11T07:08:10.767Z,102601.28
2022-11-11T07:11:27.093Z,102611.94
2022-11-11T07:14:43.331Z,102611.06
2022-11-11T07:17:59.350Z,102607.50
2022-11-11T07:21:15.214Z,102621.28
2022-11-11T07:24:31.229Z,102606.50
2022-11-11T07:27:47.413Z,102600.09
2022-11-11T07:31:03.151Z,102611.75
2022-11-11T07:34:19.233Z,102612.16
2022-11-11T07:37:36.646Z,102615.00
2022-11-11T07:40:52.095Z,102634.78
2022-11-11T07:44:08.165Z,102624.00
2022-11-11T07:47:23.118Z,102626.47
2022-11-11T07:50:39.120Z,102621.16
2022-11-11T07:53:55.317Z,102633.72
2022-11-11T07:57:11.099Z,102634.19
2022-11-11T08:00:27.269Z,102646.81
2022-11-11T08:03:52.214Z,102643.78
2022-11-11T08:07:08.260Z,102649.09
2022-11-11T08:10:23.972Z,102662.88
2022-11-11T08:13:40.544Z,102676.06
2022-11-11T08:16:56.579Z,102670.34
2022-11-11T08:20:13.665Z,102689.19
2022-11-11T08:24:22.709Z,102681.44
2022-11-11T08:27:10.271Z,102677.59
2022-11-11T08:30:26.154Z,102678.13
2022-11-11T08:33:42.093Z,102683.16
2022-11-11T08:36:58.249Z,102666.50
2022-11-11T08:40:15.797Z,102695.13
2022-11-11T08:43:37.358Z,102691.25
2022-11-11T08:46:53.368Z,102683.91
2022-11-11T08:50:09.412Z,102692.41
2022-11-11T08:53:26.378Z,102696.78
2022-11-11T08:56:43.325Z,102707.78
2022-11-11T08:59:58.884Z,102689.91
2022-11-11T09:03:14.273Z,102706.41
2022-11-11T09:06:30.052Z,102702.00
2022-11-11T09:09:46.366Z,102708.88
2022-11-11T09:13:02.161Z,102723.50
2022-11-11T09:16:18.481Z,102721.72
2022-11-11T09:19:34.309Z,102729.94
2022-11-11T09:22:50.817Z,102732.78
2022-11-11T09:26:06.165Z,102724.97
2022-11-11T09:29:22.150Z,102735.94
2022-11-11T09:32:38.581Z,102745.56
2022-11-11T09:35:54.595Z,102744.97
2022-11-11T09:39:10.229Z,102741.81
2022-11-11T09:42:39.744Z,102735.69
2022-11-11T09:46:01.081Z,102738.88
2022-11-11T09:49:41.179Z,102730.31
2022-11-11T09:53:18.409Z,102735.81
2022-11-11T09:56:34.370Z,102735.63
2022-11-11T09:59:52.222Z,102734.59
2022-11-11T10:03:21.398Z,102728.28
2022-11-11T10:06:37.038Z,102745.06
2022-11-11T10:09:58.030Z,102753.06
2022-11-11T10:13:46.373Z,102760.69
2022-11-11T10:17:23.902Z,102743.78
2022-11-11T10:20:43.855Z,102750.28
2022-11-11T10:24:00.606Z,102741.03
2022-11-11T10:27:19.292Z,102739.38
2022-11-11T10:30:35.258Z,102749.38
2022-11-11T10:34:02.985Z,102739.88
2022-11-11T10:37:21.822Z,102745.78
2022-11-11T10:40:50.512Z,102729.44
2022-11-11T10:44:28.389Z,102744.81
2022-11-11T10:48:06.008Z,102744.38
2022-11-11T10:51:22.426Z,102742.50
2022-11-11T10:54:45.839Z,102749.56
2022-11-11T10:58:27.910Z,102752.72
2022-11-11T11:02:05.352Z,102747.56
2022-11-11T11:05:32.698Z,102752.25
2022-11-11T11:08:53.316Z,102738.53
2022-11-11T11:12:39.873Z,102736.56
2022-11-11T11:16:00.144Z,102742.72
2022-11-11T11:19:35.517Z,102745.06
2022-11-11T11:22:59.701Z,102750.25
2022-11-11T11:26:15.327Z,102735.88
2022-11-11T11:29:37.381Z,102734.03
2022-11-11T11:33:05.896Z,102740.50
2022-11-11T11:36:21.642Z,102730.47
2022-11-11T11:39:38.896Z,102724.28
2022-11-11T11:42:54.563Z,102736.34
2022-11-11T11:46:21.465Z,102733.00
2022-11-11T11:49:59.454Z,102742.28
2022-11-11T11:53:50.947Z,102732.25
2022-11-11T11:57:20.707Z,102753.69
2022-11-11T12:00:40.118Z,102739.31
2022-11-11T12:04:19.468Z,102729.59
2022-11-11T12:07:50.410Z,102723.66
2022-11-11T12:11:27.222Z,102717.41
2022-11-11T12:15:02.373Z,102717.97
2022-11-11T12:18:24.411Z,102701.72
2022-11-11T12:22:03.800Z,102715.44
2022-11-11T12:25:28.860Z,102706.94
2022-11-11T12:29:07.235Z,102719.97
2022-11-11T12:32:23.059Z,102727.19
2022-11-11T12:35:49.446Z,102738.88
2022-11-11T12:39:34.356Z,102707.66
2022-11-11T12:43:02.349Z,102716.28
2022-11-11T12:46:46.646Z,102711.50
2022-11-11T12:50:24.912Z,102699.81
2022-11-11T12:53:53.117Z,102697.94
2022-11-11T12:57:21.064Z,102687.94
2022-11-11T13:01:01.149Z,102689.25
2022-11-11T13:04:42.545Z,102706.72
2022-11-11T13:08:01.720Z,102704.41
2022-11-11T13:11:42.000Z,102700.53
2022-11-11T13:15:17.317Z,102698.75
2022-11-11T13:18:44.370Z,102695.97
2022-11-11T13:22:27.791Z,102699.91
2022-11-11T13:25:52.427Z,102709.44
2022-11-11T13:29:52.379Z,102726.03
2022-11-11T13:33:20.819Z,102731.09
2022-11-11T13:36:43.491Z,102724.44
2022-11-11T13:40:02.892Z,102741.22
2022-11-11T13:43:28.738Z,102729.81
2022-11-11T13:46:49.727Z,102714.69
2022-11-11T13:50:23.895Z,102700.28
2022-11-11T13:53:39.215Z,102700.56
2022-11-11T13:57:02.999Z,102701.09
2022-11-11T14:00:18.757Z,102694.09
2022-11-11T14:03:43.571Z,102696.66
2022-11-11T14:06:59.577Z,102710.22
2022-11-11T14:10:18.318Z,102711.53
2022-11-11T14:13:34.932Z,102719.53
2022-11-11T14:16:53.098Z,102717.25
2022-11-11T14:20:30.470Z,102714.91
2022-11-11T14:23:46.468Z,102706.34
2022-11-11T14:27:16.851Z,102709.44
2022-11-11T14:30:38.348Z,102717.03
2022-11-11T14:34:32.025Z,102706.94
2022-11-11T14:37:54.444Z,102706.22
2022-11-11T14:41:41.574Z,102724.91
2022-11-11T14:44:57.522Z,102714.34
2022-11-11T14:48:51.212Z,102717.19
2022-11-11T14:52:30.411Z,102724.13
2022-11-11T14:55:52.021Z,102739.00
2022-11-11T14:59:08.295Z,102732.16
2022-11-11T15:02:31.875Z,102727.34
2022-11-11T15:05:55.012Z,102728.19
2022-11-11T15:09:28.666Z,102733.25
2022-11-11T15:13:06.186Z,102733.25
2022-11-11T15:16:34.697Z,102731.22
2022-11-11T15:19:59.246Z,102730.88
2022-11-11T15:23:35.658Z,102739.47
2022-11-11T15:26:54.206Z,102726.00
2022-11-11T15:30:17.166Z,102733.88
2022-11-11T15:33:54.765Z,102728.94
2022-11-11T15:37:12.847Z,102729.06
2022-11-11T15:40:51.446Z,102740.00
2022-11-11T15:44:19.067Z,102733.44
2022-11-11T15:47:35.894Z,102740.28
2022-11-11T15:50:51.604Z,102745.13
2022-11-11T15:54:11.516Z,102753.31
2022-11-11T15:57:30.879Z,102735.13
2022-11-11T16:00:46.973Z,102743.88
2022-11-11T16:04:02.623Z,102753.06
2022-11-11T16:07:20.611Z,102761.25
2022-11-11T16:10:37.329Z,102754.56
2022-11-11T16:14:07.988Z,102752.94
2022-11-11T16:17:26.568Z,102759.03
2022-11-11T16:20:52.789Z,102753.06
2022-11-11T16:24:31.875Z,102767.44
2022-11-11T16:27:47.691Z,102770.47
2022-11-11T16:31:36.996Z,102778.81
2022-11-11T16:34:55.568Z,102780.31
2022-11-11T16:38:12.004Z,102776.97
2022-11-11T16:41:33.564Z,102784.66
2022-11-11T16:45:00.109Z,102776.00
2022-11-11T16:48:39.949Z,102769.97
2022-11-11T16:51:55.763Z,102777.31
2022-11-11T16:55:31.345Z,102777.25
2022-11-11T16:58:54.308Z,102782.97
2022-11-11T17:02:19.182Z,102789.78
2022-11-11T17:05:57.289Z,102803.31
2022-11-11T17:09:41.384Z,102808.38
2022-11-11T17:12:57.608Z,102807.38
2022-11-11T17:16:13.686Z,102799.13
2022-11-11T17:19:31.143Z,102797.09
2022-11-11T17:22:56.677Z,102781.47
2022-11-11T17:26:12.675Z,102778.06
2022-11-11T17:29:28.840Z,102772.91
2022-11-11T17:32:46.709Z,102773.44
2022-11-11T17:36:02.773Z,102794.31
2022-11-11T17:39:18.861Z,102790.97
2022-11-11T17:42:34.639Z,102784.91
2022-11-11T17:45:51.813Z,102779.63
2022-11-11T17:49:07.797Z,102787.66
2022-11-11T17:52:24.002Z,102785.41
2022-11-11T17:55:39.306Z,102783.72
2022-11-11T17:58:55.582Z,102801.00
2022-11-11T18:02:12.485Z,102794.88
2022-11-11T18:05:28.490Z,102798.09
2022-11-11T18:08:44.827Z,102795.53
2022-11-11T18:12:00.632Z,102774.69
2022-11-11T18:15:17.031Z,102797.78
2022-11-11T18:18:32.570Z,102812.78
2022-11-11T18:21:48.697Z,102809.69
2022-11-11T18:25:04.820Z,102823.81
2022-11-11T18:28:20.694Z,102806.66
2022-11-11T18:31:37.142Z,102785.06
2022-11-11T18:34:52.574Z,102772.41
2022-11-11T18:38:08.636Z,102780.81
2022-11-11T18:41:24.828Z,102798.91
2022-11-11T18:44:40.891Z,102784.25
2022-11-11T18:47:56.679Z,102781.03
2022-11-11T18:51:14.623Z,102774.53
2022-11-11T18:54:30.713Z,102768.66
2022-11-11T18:57:46.813Z,102784.19
2022-11-11T19:01:13.358Z,102785.53
2022-11-11T19:04:28.636Z,102797.56
2022-11-11T19:07:47.732Z,102804.34
2022-11-11T19:11:04.722Z,102792.13
2022-11-11T19:14:22.994Z,102787.72
2022-11-11T19:17:40.222Z,102786.69
2022-11-11T19:20:55.813Z,102780.59
2022-11-11T19:24:11.818Z,102779.97
2022-11-11T19:27:27.642Z,102792.94
2022-11-11T19:30:43.669Z,102794.09
2022-11-11T19:34:00.007Z,102797.78
2022-11-11T19:37:19.906Z,102792.88
2022-11-11T19:40:37.509Z,102806.09
2022-11-11T19:44:01.860Z,102799.78
2022-11-11T19:47:18.181Z,102812.88
2022-11-11T19:50:33.893Z,102816.47
2022-11-11T19:53:54.986Z,102825.13
2022-11-11T19:57:13.284Z,102830.59
2022-11-11T20:00:29.902Z,102831.97
2022-11-11T20:03:45.863Z,102828.34
2022-11-11T20:07:01.978Z,102843.50
2022-11-11T20:10:17.847Z,102843.97
2022-11-11T20:13:37.222Z,102832.13
2022-11-11T20:16:55.774Z,102843.81
2022-11-11T20:20:11.799Z,102836.25
2022-11-11T20:23:28.061Z,102851.13
2022-11-11T20:26:43.618Z,102860.06
2022-11-11T20:29:59.555Z,102872.31
2022-11-11T20:33:14.804Z,102867.50
2022-11-11T20:36:30.867Z,102858.00
2022-11-11T20:39:47.280Z,102880.81
2022-11-11T20:43:04.039Z,102870.56
2022-11-11T20:46:20.054Z,102869.91
2022-11-11T20:49:35.519Z,102883.44
2022-11-11T20:52:52.141Z,102876.94
2022-11-11T20:56:09.544Z,102857.22
2022-11-11T20:59:24.708Z,102868.78
2022-11-11T21:02:40.718Z,102878.00
2022-11-11T21:06:03.889Z,102878.63
2022-11-11T21:09:20.013Z,102876.00
2022-11-11T21:12:35.879Z,102883.56
2022-11-11T21:15:51.774Z,102899.44
2022-11-11T21:19:06.918Z,102869.28
2022-11-11T21:22:22.853Z,102856.78
2022-11-11T21:25:38.639Z,102848.69
2022-11-11T21:28:53.852Z,102849.50
2022-11-11T21:32:08.645Z,102864.72
2022-11-11T21:35:25.201Z,102885.81
2022-11-11T21:38:42.207Z,102884.72
2022-11-11T21:41:57.681Z,102864.34
2022-11-11T21:45:12.778Z,102856.47
2022-11-11T21:48:29.277Z,102854.97
2022-11-11T21:51:44.755Z,102857.34
2022-11-11T21:55:00.818Z,102870.78
2022-11-11T21:58:16.790Z,102888.66
2022-11-11T22:01:37.544Z,102891.13
2022-11-11T22:04:54.068Z,102874.00
2022-11-11T22:08:09.860Z,102871.91
2022-11-11T22:11:27.411Z,102885.28
2022-11-11T22:14:43.069Z,102888.06
2022-11-11T22:17:58.859Z,102886.00
2022-11-11T22:21:20.753Z,102899.13
2022-11-11T22:24:36.598Z,102884.31
2022-11-11T22:27:53.197Z,102884.69
2022-11-11T22:31:12.531Z,102888.75
2022-11-11T22:34:27.704Z,102880.81
2022-11-11T22:37:43.099Z,102884.13
2022-11-11T22:41:07.071Z,102886.06
2022-11-11T22:44:22.555Z,102889.97
2022-11-11T22:47:37.809Z,102895.28
2022-11-11T22:50:53.726Z,102903.84
2022-11-11T22:54:10.095Z,102906.28
2022-11-11T22:57:30.677Z,102893.22
2022-11-11T23:00:45.924Z,102902.25
2022-11-11T23:04:03.017Z,102900.69
2022-11-11T23:07:19.156Z,102902.47
2022-11-11T23:10:35.046Z,102907.81
2022-11-11T23:13:50.802Z,102914.19
2022-11-11T23:17:06.997Z,102890.09
2022-11-11T23:20:22.964Z,102908.38
2022-11-11T23:23:39.092Z,102908.59
2022-11-11T23:26:54.757Z,102937.66
2022-11-11T23:30:10.514Z,102902.47
2022-11-11T23:33:25.879Z,102893.00
2022-11-11T23:36:41.062Z,102894.50
2022-11-11T23:39:57.001Z,102905.38
2022-11-11T23:43:12.985Z,102891.94
2022-11-11T23:46:28.926Z,102914.13
2022-11-11T23:49:44.605Z,102936.13
2022-11-11T23:52:59.742Z,102914.28
2022-11-11T23:56:15.856Z,102908.69
2022-11-11T23:59:32.190Z,102912.97
